North Tarrytown, New York
Current Conditions -  °F | °C
As of 4:56 AM on Saturday 25 Oct 2014 (Local Time) from KHPN Reporting Station
Clear Clear  
Wind Chill: 43°   Ceiling: Unl
Heat Index: 46°   Visibility: 10mi
Dew Point: 39°   Wind: 6mph
Humidity: 76%   Direction: 280°W
Pressure: 29.84"   Gusts: NA
Location:  41.0851°N, 73.846°W
Report Text: KHPN 250856Z 28005KT 10SM CLR 08/04 A2984 RMK AO2 SLP104 T00780039 51001
Loading
Personal Weather Stations






























Interactive Weather Map
Tropical Storm Tracking
New forecast layout! Learn more

10-Day Weather Forecast

Advertisements
Track Severe Weather on mobile